Time;durP1;ratioP1;P1;durP2;ratioP2;P2;SDS_P1;SDS_P2;PMS_P1;PMS_P2;Temp;Humidity;BMP_temperature;BMP_pressure;BME280_temperature;BME280_humidity;BME280_pressure;Samples;Min_cycle;Max_cycle;Signal;HPM_P1;HPM_P2
2022/09/22 00:02:02;;;;;;;4.70;4.00;;;;;9.40;99651.00;;;;16403486;28;20375;-76
2022/09/22 00:10:06;;;;;;;4.83;4.43;;;;;9.00;99647.00;;;;16403475;28;20213;-76
2022/09/22 00:18:10;;;;;;;4.13;3.73;;;;;8.60;99636.00;;;;16393858;28;20268;-74
2022/09/22 00:26:14;;;;;;;4.57;4.17;;;;;9.10;99632.00;;;;16400310;28;20319;-75
2022/09/22 00:34:20;;;;;;;3.70;3.40;;;;;8.50;99627.00;;;;16411230;28;20394;-75
2022/09/22 00:42:24;;;;;;;8.13;3.10;;;;;8.40;99623.00;;;;16398219;28;20225;-74
2022/09/22 00:50:28;;;;;;;4.33;3.97;;;;;8.50;99613.00;;;;16399517;28;20716;-73
2022/09/22 00:58:33;;;;;;;3.80;3.50;;;;;8.40;99612.00;;;;16403928;28;20291;-74
2022/09/22 01:06:37;;;;;;;3.83;3.53;;;;;8.10;99609.00;;;;16403275;28;20234;-75
2022/09/22 01:15:00;;;;;;;3.60;3.30;;;;;8.40;99624.00;;;;16389588;28;20227;-76
2022/09/22 01:23:39;;;;;;;4.80;3.93;;;;;8.50;99618.00;;;;16391121;28;20344;-73
2022/09/22 01:31:47;;;;;;;4.30;4.00;;;;;8.40;99619.00;;;;16387044;28;20250;-76
2022/09/22 01:39:53;;;;;;;3.70;3.33;;;;;8.20;99614.00;;;;16396930;28;20478;-74
2022/09/22 01:48:01;;;;;;;5.97;3.53;;;;;8.30;99615.00;;;;16393094;28;20281;-73
2022/09/22 01:56:07;;;;;;;3.50;3.20;;;;;8.10;99604.00;;;;16404981;28;20302;-74
2022/09/22 02:04:14;;;;;;;5.50;3.80;;;;;7.70;99628.00;;;;16398294;28;20604;-75
2022/09/22 02:12:17;;;;;;;3.57;3.27;;;;;7.70;99622.00;;;;16391859;28;20225;-74
2022/09/22 02:20:21;;;;;;;5.77;3.70;;;;;7.70;99617.00;;;;16394725;28;20217;-75
2022/09/22 02:28:24;;;;;;;3.90;3.60;;;;;7.70;99611.00;;;;16398027;28;20595;-75
2022/09/22 02:36:39;;;;;;;5.73;4.53;;;;;7.60;99612.00;;;;16401455;28;20289;-76
2022/09/22 02:44:47;;;;;;;6.37;4.10;;;;;7.40;99595.00;;;;16386923;28;20226;-77
2022/09/22 02:52:53;;;;;;;4.47;4.03;;;;;7.60;99608.00;;;;16397054;28;20292;-74
2022/09/22 03:00:56;;;;;;;3.87;3.57;;;;;7.80;99604.00;;;;16400386;28;20604;-75
2022/09/22 03:08:59;;;;;;;5.17;4.30;;;;;8.00;99599.00;;;;16394772;28;20763;-75
2022/09/22 03:17:02;;;;;;;4.53;3.83;;;;;7.90;99591.00;;;;16398597;28;20314;-76
2022/09/22 03:25:08;;;;;;;4.47;4.07;;;;;7.40;99582.00;;;;16416405;28;20321;-75
2022/09/22 03:33:10;;;;;;;3.70;3.40;;;;;7.50;99591.00;;;;16413129;28;20241;-74
2022/09/22 03:41:14;;;;;;;5.30;3.80;;;;;7.80;99589.00;;;;16415187;28;20464;-77
2022/09/22 03:49:17;;;;;;;4.53;4.13;;;;;7.50;99588.00;;;;16403396;28;20352;-78
2022/09/22 03:57:20;;;;;;;5.30;4.90;;;;;7.90;99574.00;;;;16491311;23;20231;-48
2022/09/22 04:05:23;;;;;;;4.50;4.10;;;;;7.70;99585.00;;;;16492557;28;20727;-49
2022/09/22 04:13:27;;;;;;;4.20;3.80;;;;;7.70;99575.00;;;;16465228;28;20586;-49
2022/09/22 04:21:29;;;;;;;4.80;4.30;;;;;7.90;99571.00;;;;16476975;28;20233;-49
2022/09/22 04:29:33;;;;;;;4.97;4.57;;;;;7.40;99580.00;;;;16482068;28;20202;-49
2022/09/22 04:37:35;;;;;;;4.33;3.93;;;;;7.20;99592.00;;;;16484442;28;20216;-49
2022/09/22 04:45:39;;;;;;;4.63;4.23;;;;;7.50;99590.00;;;;16470377;28;20588;-49
2022/09/22 04:53:42;;;;;;;5.03;4.57;;;;;7.30;99589.00;;;;16463505;28;20237;-49
2022/09/22 05:01:45;;;;;;;10.53;5.10;;;;;7.40;99577.00;;;;16459140;28;20270;-49
2022/09/22 05:09:48;;;;;;;4.70;4.30;;;;;7.20;99584.00;;;;16478454;28;20348;-48
2022/09/22 05:17:53;;;;;;;8.27;5.00;;;;;7.50;99592.00;;;;16459936;28;20205;-49
2022/09/22 05:25:56;;;;;;;5.77;5.10;;;;;7.50;99598.00;;;;16451712;28;20228;-49
2022/09/22 05:34:00;;;;;;;5.27;4.60;;;;;7.80;99599.00;;;;16457530;28;20289;-49
2022/09/22 05:42:03;;;;;;;6.70;5.10;;;;;7.40;99606.00;;;;16450056;28;20231;-49
2022/09/22 05:50:08;;;;;;;5.27;4.77;;;;;7.40;99603.00;;;;16438090;28;20225;-49
2022/09/22 05:58:11;;;;;;;11.40;5.47;;;;;8.30;99598.00;;;;16459749;28;20220;-49
2022/09/22 06:06:15;;;;;;;6.37;4.13;;;;;8.00;99589.00;;;;16479673;28;20283;-48
2022/09/22 06:14:18;;;;;;;5.40;5.00;;;;;8.20;99597.00;;;;16464140;28;20222;-49
2022/09/22 06:22:22;;;;;;;5.30;4.80;;;;;8.70;99592.00;;;;16438123;28;20238;-49
2022/09/22 06:30:25;;;;;;;6.70;6.07;;;;;9.10;99588.00;;;;16451520;28;20223;-49
2022/09/22 06:38:31;;;;;;;7.63;6.13;;;;;9.70;99584.00;;;;16482049;28;20203;-49
2022/09/22 06:46:34;;;;;;;7.97;7.27;;;;;11.10;99569.00;;;;16470640;28;20231;-48
2022/09/22 06:54:39;;;;;;;9.50;7.33;;;;;11.60;99552.00;;;;16485832;28;20238;-49
2022/09/22 07:02:42;;;;;;;7.77;6.93;;;;;11.90;99545.00;;;;16471580;28;20769;-49
2022/09/22 07:10:46;;;;;;;9.60;8.13;;;;;12.20;99533.00;;;;16465824;28;20216;-48
2022/09/22 07:18:49;;;;;;;12.43;8.80;;;;;12.10;99534.00;;;;16440443;28;20209;-48
2022/09/22 07:26:53;;;;;;;17.07;11.43;;;;;12.70;99528.00;;;;16442124;28;20216;-49
2022/09/22 07:34:56;;;;;;;10.90;7.20;;;;;12.90;99526.00;;;;16497448;28;20830;-49
2022/09/22 07:43:00;;;;;;;11.03;6.30;;;;;13.40;99527.00;;;;16460866;28;20355;-49
2022/09/22 07:51:03;;;;;;;6.20;5.70;;;;;13.90;99524.00;;;;16480056;28;20221;-48
2022/09/22 07:59:08;;;;;;;15.90;14.30;;;;;14.50;99510.00;;;;16442755;28;20217;-48
2022/09/22 08:07:11;;;;;;;9.90;8.90;;;;;14.60;99518.00;;;;16438407;28;20230;-49
2022/09/22 08:15:15;;;;;;;10.03;8.20;;;;;14.90;99501.00;;;;16459706;28;20833;-49
2022/09/22 08:23:17;;;;;;;10.03;8.53;;;;;15.10;99493.00;;;;16459293;28;20263;-49
2022/09/22 08:31:22;;;;;;;13.40;7.70;;;;;15.40;99487.00;;;;16448120;28;20226;-49
2022/09/22 08:39:24;;;;;;;7.97;5.43;;;;;15.40;99482.00;;;;16457593;28;20211;-49
2022/09/22 08:55:56;;;;;;;8.17;6.83;;;;;16.30;99473.00;;;;16477919;28;20258;-49
2022/09/22 09:04:10;;;;;;;5.20;4.20;;;;;16.70;99474.00;;;;16466417;28;20238;-49
2022/09/22 09:12:24;;;;;;;3.30;3.00;;;;;16.50;99474.00;;;;16481481;28;20270;-49
2022/09/22 09:20:34;;;;;;;4.77;3.10;;;;;16.60;99472.00;;;;16473374;28;20236;-49
2022/09/22 09:28:41;;;;;;;4.00;2.70;;;;;17.10;99458.00;;;;16473648;28;20607;-49
2022/09/22 09:36:48;;;;;;;4.90;2.93;;;;;17.70;99451.00;;;;16461286;28;20291;-49
2022/09/22 09:44:52;;;;;;;3.40;2.53;;;;;18.00;99449.00;;;;16472191;28;20311;-49
2022/09/22 09:52:57;;;;;;;4.17;2.93;;;;;19.20;99436.00;;;;16464499;28;20615;-49
2022/09/22 10:01:01;;;;;;;3.70;2.20;;;;;18.70;99432.00;;;;16463024;28;20228;-49
2022/09/22 10:09:05;;;;;;;3.07;1.87;;;;;19.30;99422.00;;;;16444059;28;20200;-49
2022/09/22 10:17:20;;;;;;;2.53;1.70;;;;;19.90;99419.00;;;;16461043;28;20593;-49
2022/09/22 10:25:26;;;;;;;2.00;1.30;;;;;21.00;99401.00;;;;16440908;28;20229;-48
2022/09/22 10:33:29;;;;;;;3.03;1.40;;;;;21.60;99403.00;;;;16451100;28;20717;-50
2022/09/22 10:41:35;;;;;;;1.63;1.40;;;;;22.20;99387.00;;;;16437966;28;20240;-48
2022/09/22 10:49:50;;;;;;;1.50;1.40;;;;;20.80;99387.00;;;;16427279;28;20251;-47
2022/09/22 10:58:19;;;;;;;2.70;1.80;;;;;21.90;99383.00;;;;16444507;28;20197;-49
2022/09/22 11:15:18;;;;;;;1.50;1.17;;;;;22.90;99379.00;;;;16439282;28;20217;-48
2022/09/22 11:23:44;;;;;;;2.10;1.00;;;;;22.70;99370.00;;;;16439552;28;20228;-49
2022/09/22 11:31:52;;;;;;;1.23;1.03;;;;;22.20;99366.00;;;;16428460;28;20668;-49
2022/09/22 11:40:16;;;;;;;1.87;1.70;;;;;24.30;99346.00;;;;16439428;28;20243;-50
2022/09/22 11:48:31;;;;;;;1.83;1.30;;;;;23.70;99351.00;;;;16443604;28;20232;-50
2022/09/22 11:56:38;;;;;;;2.60;1.20;;;;;23.40;99342.00;;;;16437808;28;20422;-48
2022/09/22 12:04:46;;;;;;;1.40;1.20;;;;;24.10;99335.00;;;;16446303;28;20741;-48
2022/09/22 12:12:50;;;;;;;1.77;1.30;;;;;24.70;99321.00;;;;16452969;28;20239;-48
2022/09/22 12:20:59;;;;;;;2.20;1.33;;;;;23.40;99326.00;;;;16479399;28;20283;-49
2022/09/22 12:29:06;;;;;;;1.23;1.00;;;;;24.30;99316.00;;;;16456460;28;20212;-49
2022/09/22 12:37:12;;;;;;;0.90;0.90;;;;;23.80;99317.00;;;;16463178;28;20723;-49
2022/09/22 12:45:20;;;;;;;2.03;1.30;;;;;23.90;99311.00;;;;16469788;28;20236;-50
2022/09/22 12:53:28;;;;;;;1.33;1.23;;;;;25.70;99304.00;;;;16490223;28;20228;-49
2022/09/22 13:01:35;;;;;;;2.30;1.40;;;;;25.50;99291.00;;;;16477045;28;20239;-50
2022/09/22 13:09:38;;;;;;;2.13;1.63;;;;;26.10;99283.00;;;;16478503;28;20387;-50
2022/09/22 13:17:42;;;;;;;1.10;1.00;;;;;24.80;99283.00;;;;16454038;28;20192;-49
2022/09/22 13:25:47;;;;;;;9.87;7.80;;;;;25.60;99278.00;;;;16479506;28;20601;-50
2022/09/22 13:33:49;;;;;;;2.43;1.90;;;;;26.10;99277.00;;;;16437479;28;20216;-48
2022/09/22 13:41:55;;;;;;;1.63;0.93;;;;;26.90;99272.00;;;;16443607;28;20690;-50
2022/09/22 13:50:03;;;;;;;1.30;1.20;;;;;27.40;99265.00;;;;16438139;28;20298;-49
2022/09/22 13:58:12;;;;;;;1.30;1.20;;;;;27.40;99266.00;;;;16440619;28;20695;-49
2022/09/22 14:06:16;;;;;;;3.17;2.60;;;;;25.10;99266.00;;;;16453485;28;20287;-49
2022/09/22 14:14:24;;;;;;;1.80;1.57;;;;;27.50;99256.00;;;;16467556;28;20217;-48
2022/09/22 14:22:28;;;;;;;1.60;1.20;;;;;28.40;99250.00;;;;16450802;28;20706;-49
2022/09/22 14:30:41;;;;;;;1.50;1.40;;;;;26.70;99238.00;;;;16448058;28;20225;-49
2022/09/22 14:38:44;;;;;;;1.67;1.47;;;;;26.50;99242.00;;;;16462933;28;20200;-48
2022/09/22 14:46:47;;;;;;;1.70;1.30;;;;;27.60;99235.00;;;;16565654;22;20231;-49
2022/09/22 14:54:50;;;;;;;1.67;1.37;;;;;29.00;99229.00;;;;16585271;28;20317;-50
2022/09/22 15:02:56;;;;;;;1.30;1.17;;;;;29.50;99225.00;;;;16593702;28;20225;-51
2022/09/22 15:11:00;;;;;;;4.40;1.87;;;;;29.50;99220.00;;;;16606678;28;20207;-50
2022/09/22 15:19:04;;;;;;;1.80;1.50;;;;;27.10;99207.00;;;;16593031;28;20191;-50
2022/09/22 15:27:08;;;;;;;3.43;1.50;;;;;28.20;99209.00;;;;16598761;28;20219;-50
2022/09/22 15:35:12;;;;;;;2.40;2.20;;;;;28.10;99213.00;;;;16596873;28;20215;-50
2022/09/22 15:43:19;;;;;;;1.80;1.70;;;;;25.20;99208.00;;;;16578337;28;20219;-50
2022/09/22 15:51:23;;;;;;;1.73;1.63;;;;;28.80;99201.00;;;;16560654;28;20235;-49
2022/09/22 15:59:27;;;;;;;3.17;1.40;;;;;28.70;99199.00;;;;16573619;28;20758;-50
2022/09/22 16:07:30;;;;;;;2.27;1.33;;;;;28.00;99191.00;;;;16564270;28;20691;-49
2022/09/22 16:15:33;;;;;;;1.43;1.30;;;;;27.40;99201.00;;;;16567784;28;20585;-48
2022/09/22 16:23:37;;;;;;;1.70;1.60;;;;;25.60;99200.00;;;;16558771;28;20700;-49
2022/09/22 16:31:39;;;;;;;3.00;1.47;;;;;26.50;99196.00;;;;16572689;28;20260;-49
2022/09/22 16:39:44;;;;;;;1.90;1.70;;;;;27.20;99203.00;;;;16602851;28;20742;-49
2022/09/22 16:47:47;;;;;;;3.37;1.93;;;;;27.50;99197.00;;;;16596077;28;20631;-49
2022/09/22 16:55:50;;;;;;;2.50;2.30;;;;;25.70;99208.00;;;;16601840;28;20231;-50
2022/09/22 17:03:53;;;;;;;3.73;3.30;;;;;21.80;99213.00;;;;16573253;28;20629;-49
2022/09/22 17:11:57;;;;;;;3.87;2.40;;;;;18.10;99237.00;;;;16598469;28;20592;-49
2022/09/22 17:19:59;;;;;;;3.40;2.00;;;;;17.60;99251.00;;;;16567408;28;20204;-49
2022/09/22 17:28:04;;;;;;;2.40;2.20;;;;;16.80;99247.00;;;;16564169;28;20571;-49
2022/09/22 17:36:07;;;;;;;2.50;2.30;;;;;16.00;99261.00;;;;16591072;28;20234;-49
2022/09/22 17:44:10;;;;;;;4.53;2.20;;;;;15.60;99262.00;;;;16560464;28;20731;-49
2022/09/22 18:00:37;;;;;;;3.10;2.77;;;;;14.50;99285.00;;;;16561358;28;20205;-49
2022/09/22 18:08:41;;;;;;;3.13;2.83;;;;;14.20;99278.00;;;;16580680;28;20228;-50
2022/09/22 18:16:45;;;;;;;3.30;2.80;;;;;14.10;99276.00;;;;16598793;28;20212;-50
2022/09/22 18:24:48;;;;;;;5.40;2.80;;;;;13.60;99278.00;;;;16575205;28;20789;-49
2022/09/22 18:42:16;;;;;;;3.10;2.77;;;;;13.00;99281.00;;;;16544808;28;20934;-50
2022/09/22 18:50:19;;;;;;;3.53;2.40;;;;;13.00;99286.00;;;;16564979;28;20211;-50
2022/09/22 18:58:23;;;;;;;3.00;2.80;;;;;13.10;99292.00;;;;16568060;28;20216;-49
2022/09/22 19:06:25;;;;;;;4.40;3.17;;;;;12.90;99296.00;;;;16579835;28;20229;-49
2022/09/22 19:14:35;;;;;;;4.40;2.93;;;;;12.70;99293.00;;;;16565711;28;20216;-50
2022/09/22 19:22:37;;;;;;;4.70;4.13;;;;;12.70;99292.00;;;;16561335;28;20220;-50
2022/09/22 19:30:41;;;;;;;4.10;3.70;;;;;12.60;99289.00;;;;16559602;28;20837;-50
2022/09/22 19:38:43;;;;;;;4.27;3.87;;;;;12.40;99304.00;;;;16559326;28;20219;-51
2022/09/22 19:46:48;;;;;;;3.90;3.60;;;;;12.50;99298.00;;;;16543981;28;20219;-50
2022/09/22 19:54:51;;;;;;;3.93;3.50;;;;;12.50;99290.00;;;;16566174;28;20215;-51
2022/09/22 20:02:57;;;;;;;4.80;4.27;;;;;12.00;99292.00;;;;16553891;28;20894;-49
2022/09/22 20:10:59;;;;;;;4.70;4.30;;;;;12.20;99283.00;;;;16562723;28;20204;-50
2022/09/22 20:19:03;;;;;;;5.67;5.10;;;;;12.10;99283.00;;;;16576045;28;20796;-50
2022/09/22 20:27:05;;;;;;;10.20;5.20;;;;;12.00;99283.00;;;;16573335;28;20632;-51
2022/09/22 20:35:10;;;;;;;4.20;3.80;;;;;11.90;99274.00;;;;16597802;28;20211;-49
2022/09/22 20:43:13;;;;;;;5.60;3.53;;;;;11.80;99270.00;;;;16580905;28;20313;-49
2022/09/22 20:51:17;;;;;;;4.83;4.37;;;;;11.80;99267.00;;;;16598574;28;20230;-49
2022/09/22 20:59:20;;;;;;;7.63;3.60;;;;;11.50;99280.00;;;;16594504;28;20203;-50
2022/09/22 21:07:24;;;;;;;4.50;4.10;;;;;11.40;99277.00;;;;16589141;28;20873;-50
2022/09/22 21:15:26;;;;;;;4.77;4.40;;;;;11.70;99268.00;;;;16594630;28;20564;-50
2022/09/22 21:23:31;;;;;;;6.00;4.20;;;;;11.40;99277.00;;;;16598109;28;20223;-50
2022/09/22 21:31:34;;;;;;;5.17;4.40;;;;;11.60;99263.00;;;;16586221;28;20595;-50
2022/09/22 21:39:38;;;;;;;5.07;3.70;;;;;11.90;99266.00;;;;16596760;28;20218;-48
2022/09/22 21:47:40;;;;;;;4.20;3.90;;;;;11.10;99273.00;;;;16597075;28;20233;-51
2022/09/22 21:55:44;;;;;;;6.83;4.50;;;;;11.50;99271.00;;;;16590711;28;20221;-49
2022/09/22 22:03:47;;;;;;;4.90;4.07;;;;;11.70;99245.00;;;;16588241;28;20225;-50
2022/09/22 22:11:54;;;;;;;4.80;4.30;;;;;11.70;99251.00;;;;16596822;28;20279;-50
2022/09/22 22:19:56;;;;;;;5.70;5.20;;;;;11.90;99237.00;;;;16589353;28;20203;-49
2022/09/22 22:28:00;;;;;;;4.90;4.50;;;;;11.00;99233.00;;;;16580948;28;20330;-50
2022/09/22 22:36:04;;;;;;;5.17;4.60;;;;;10.90;99239.00;;;;16587598;28;20599;-50
2022/09/22 22:44:08;;;;;;;4.90;4.50;;;;;11.20;99237.00;;;;16593359;28;20812;-50
2022/09/22 22:52:10;;;;;;;5.40;5.00;;;;;11.40;99223.00;;;;16591595;28;20214;-50
2022/09/22 23:00:14;;;;;;;5.10;4.70;;;;;11.20;99223.00;;;;16584794;28;20203;-49
2022/09/22 23:08:17;;;;;;;4.83;4.40;;;;;11.00;99217.00;;;;16594627;28;20838;-50
2022/09/22 23:16:22;;;;;;;5.50;5.00;;;;;10.40;99211.00;;;;16588806;28;20218;-50
2022/09/22 23:24:24;;;;;;;5.60;5.10;;;;;10.90;99203.00;;;;16590648;28;20213;-49
2022/09/22 23:32:28;;;;;;;8.37;6.10;;;;;10.50;99210.00;;;;16581374;28;20214;-50
2022/09/22 23:40:33;;;;;;;7.20;5.77;;;;;10.40;99200.00;;;;16595290;28;20300;-50
2022/09/22 23:48:37;;;;;;;6.03;5.53;;;;;11.40;99193.00;;;;16596239;28;20226;-51
2022/09/22 23:56:40;;;;;;;6.00;5.57;;;;;10.30;99201.00;;;;16596440;28;20226;-50
